sensor_id;sensor_type;location;lat;lon;timestamp;temperature;humidity
67141;DHT22;54058;52.010;5.546;2022-11-28T00:01:09;8.80;91.10
67141;DHT22;54058;52.010;5.546;2022-11-28T00:03:37;8.80;91.10
67141;DHT22;54058;52.010;5.546;2022-11-28T00:06:04;8.80;91.10
67141;DHT22;54058;52.010;5.546;2022-11-28T00:08:31;8.80;91.10
67141;DHT22;54058;52.010;5.546;2022-11-28T00:10:56;8.80;91.10
67141;DHT22;54058;52.010;5.546;2022-11-28T00:13:22;8.80;91.10
67141;DHT22;54058;52.010;5.546;2022-11-28T00:15:58;8.80;91.10
67141;DHT22;54058;52.010;5.546;2022-11-28T00:18:24;8.90;91.10
67141;DHT22;54058;52.010;5.546;2022-11-28T00:20:50;8.90;91.10
67141;DHT22;54058;52.010;5.546;2022-11-28T00:23:15;8.90;91.10
67141;DHT22;54058;52.010;5.546;2022-11-28T00:25:41;8.90;91.10
67141;DHT22;54058;52.010;5.546;2022-11-28T00:28:07;8.90;91.10
67141;DHT22;54058;52.010;5.546;2022-11-28T00:30:36;8.90;91.10
67141;DHT22;54058;52.010;5.546;2022-11-28T00:33:02;9.00;91.10
67141;DHT22;54058;52.010;5.546;2022-11-28T00:35:28;8.90;91.10
67141;DHT22;54058;52.010;5.546;2022-11-28T00:37:54;8.90;91.10
67141;DHT22;54058;52.010;5.546;2022-11-28T00:40:19;9.00;91.10
67141;DHT22;54058;52.010;5.546;2022-11-28T00:42:45;9.00;91.10
67141;DHT22;54058;52.010;5.546;2022-11-28T00:45:11;9.00;91.20
67141;DHT22;54058;52.010;5.546;2022-11-28T00:47:36;9.00;91.20
67141;DHT22;54058;52.010;5.546;2022-11-28T00:50:02;9.00;91.20
67141;DHT22;54058;52.010;5.546;2022-11-28T00:52:31;9.00;91.20
67141;DHT22;54058;52.010;5.546;2022-11-28T00:54:56;9.00;91.20
67141;DHT22;54058;52.010;5.546;2022-11-28T00:57:22;9.00;91.20
67141;DHT22;54058;52.010;5.546;2022-11-28T00:59:48;9.10;91.20
67141;DHT22;54058;52.010;5.546;2022-11-28T01:02:13;9.10;91.20
67141;DHT22;54058;52.010;5.546;2022-11-28T01:04:39;9.10;91.20
67141;DHT22;54058;52.010;5.546;2022-11-28T01:07:04;9.10;91.30
67141;DHT22;54058;52.010;5.546;2022-11-28T01:09:30;9.10;91.30
67141;DHT22;54058;52.010;5.546;2022-11-28T01:11:55;9.10;91.30
67141;DHT22;54058;52.010;5.546;2022-11-28T01:14:23;9.10;91.30
67141;DHT22;54058;52.010;5.546;2022-11-28T01:16:48;9.10;91.30
67141;DHT22;54058;52.010;5.546;2022-11-28T01:19:14;9.10;91.30
67141;DHT22;54058;52.010;5.546;2022-11-28T01:21:40;9.10;91.30
67141;DHT22;54058;52.010;5.546;2022-11-28T01:24:07;9.10;91.30
67141;DHT22;54058;52.010;5.546;2022-11-28T01:26:33;9.10;91.30
67141;DHT22;54058;52.010;5.546;2022-11-28T01:28:59;9.10;91.40
67141;DHT22;54058;52.010;5.546;2022-11-28T01:31:26;9.10;91.40
67141;DHT22;54058;52.010;5.546;2022-11-28T01:33:53;9.10;91.40
67141;DHT22;54058;52.010;5.546;2022-11-28T01:36:20;9.10;91.50
67141;DHT22;54058;52.010;5.546;2022-11-28T01:38:46;9.10;91.50
67141;DHT22;54058;52.010;5.546;2022-11-28T01:41:13;9.10;91.50
67141;DHT22;54058;52.010;5.546;2022-11-28T01:46:23;9.10;91.50
67141;DHT22;54058;52.010;5.546;2022-11-28T01:48:49;9.10;91.50
67141;DHT22;54058;52.010;5.546;2022-11-28T01:51:16;9.20;91.60
67141;DHT22;54058;52.010;5.546;2022-11-28T01:53:43;9.20;91.50
67141;DHT22;54058;52.010;5.546;2022-11-28T01:56:23;9.20;91.60
67141;DHT22;54058;52.010;5.546;2022-11-28T01:58:53;9.20;91.60
67141;DHT22;54058;52.010;5.546;2022-11-28T02:01:20;9.20;91.60
67141;DHT22;54058;52.010;5.546;2022-11-28T02:03:49;9.20;91.60
67141;DHT22;54058;52.010;5.546;2022-11-28T02:06:20;9.20;91.60
67141;DHT22;54058;52.010;5.546;2022-11-28T02:08:50;9.20;91.60
67141;DHT22;54058;52.010;5.546;2022-11-28T02:11:24;9.20;91.60
67141;DHT22;54058;52.010;5.546;2022-11-28T02:30:15;9.30;91.60
67141;DHT22;54058;52.010;5.546;2022-11-28T02:35:46;9.30;91.60
67141;DHT22;54058;52.010;5.546;2022-11-28T02:38:47;9.30;91.50
67141;DHT22;54058;52.010;5.546;2022-11-28T02:41:53;9.30;91.50
67141;DHT22;54058;52.010;5.546;2022-11-28T02:47:49;9.30;91.50
67141;DHT22;54058;52.010;5.546;2022-11-28T02:50:21;9.30;91.50
67141;DHT22;54058;52.010;5.546;2022-11-28T02:52:52;9.30;91.60
67141;DHT22;54058;52.010;5.546;2022-11-28T02:55:43;9.30;91.50
67141;DHT22;54058;52.010;5.546;2022-11-28T02:58:17;9.30;91.50
67141;DHT22;54058;52.010;5.546;2022-11-28T03:16:37;9.30;91.60
67141;DHT22;54058;52.010;5.546;2022-11-28T03:22:13;9.30;91.60
67141;DHT22;54058;52.010;5.546;2022-11-28T03:34:31;9.30;91.60
67141;DHT22;54058;52.010;5.546;2022-11-28T03:37:08;9.30;91.60
67141;DHT22;54058;52.010;5.546;2022-11-28T03:39:38;9.30;91.70
67141;DHT22;54058;52.010;5.546;2022-11-28T03:42:15;9.30;91.70
67141;DHT22;54058;52.010;5.546;2022-11-28T03:47:57;9.30;91.70
67141;DHT22;54058;52.010;5.546;2022-11-28T03:50:33;9.30;91.70
67141;DHT22;54058;52.010;5.546;2022-11-28T03:53:08;9.30;91.60
67141;DHT22;54058;52.010;5.546;2022-11-28T03:55:43;9.30;91.60
67141;DHT22;54058;52.010;5.546;2022-11-28T03:58:32;9.30;91.70
67141;DHT22;54058;52.010;5.546;2022-11-28T04:01:07;9.30;91.70
67141;DHT22;54058;52.010;5.546;2022-11-28T04:09:15;9.30;91.70
67141;DHT22;54058;52.010;5.546;2022-11-28T04:11:53;9.30;91.70
67141;DHT22;54058;52.010;5.546;2022-11-28T04:19:45;9.20;91.80
67141;DHT22;54058;52.010;5.546;2022-11-28T04:22:29;9.30;91.80
67141;DHT22;54058;52.010;5.546;2022-11-28T04:25:02;9.30;91.80
67141;DHT22;54058;52.010;5.546;2022-11-28T04:27:41;9.30;91.80
67141;DHT22;54058;52.010;5.546;2022-11-28T04:30:10;9.20;91.80
67141;DHT22;54058;52.010;5.546;2022-11-28T04:32:36;9.20;91.80
67141;DHT22;54058;52.010;5.546;2022-11-28T04:35:04;9.20;91.80
67141;DHT22;54058;52.010;5.546;2022-11-28T04:37:31;9.20;91.90
67141;DHT22;54058;52.010;5.546;2022-11-28T04:39:59;9.20;91.80
67141;DHT22;54058;52.010;5.546;2022-11-28T04:42:50;9.20;91.80
67141;DHT22;54058;52.010;5.546;2022-11-28T04:47:46;9.20;91.80
67141;DHT22;54058;52.010;5.546;2022-11-28T04:50:12;9.20;91.80
67141;DHT22;54058;52.010;5.546;2022-11-28T04:52:46;9.30;91.80
67141;DHT22;54058;52.010;5.546;2022-11-28T04:58:10;9.30;91.80
67141;DHT22;54058;52.010;5.546;2022-11-28T05:00:38;9.30;91.80
67141;DHT22;54058;52.010;5.546;2022-11-28T05:03:04;9.30;92.10
67141;DHT22;54058;52.010;5.546;2022-11-28T05:05:31;9.30;91.80
67141;DHT22;54058;52.010;5.546;2022-11-28T05:08:05;9.30;91.90
67141;DHT22;54058;52.010;5.546;2022-11-28T05:10:30;9.20;91.80
67141;DHT22;54058;52.010;5.546;2022-11-28T05:12:56;9.30;91.80
67141;DHT22;54058;52.010;5.546;2022-11-28T05:15:22;9.30;91.80
67141;DHT22;54058;52.010;5.546;2022-11-28T05:17:47;9.30;91.90
67141;DHT22;54058;52.010;5.546;2022-11-28T05:20:13;9.30;91.90
67141;DHT22;54058;52.010;5.546;2022-11-28T05:22:39;9.20;91.80
67141;DHT22;54058;52.010;5.546;2022-11-28T05:25:05;9.30;91.90
67141;DHT22;54058;52.010;5.546;2022-11-28T05:27:30;9.30;92.10
67141;DHT22;54058;52.010;5.546;2022-11-28T05:29:56;9.30;91.90
67141;DHT22;54058;52.010;5.546;2022-11-28T05:32:22;9.30;91.90
67141;DHT22;54058;52.010;5.546;2022-11-28T05:34:47;9.30;91.90
67141;DHT22;54058;52.010;5.546;2022-11-28T05:37:13;9.30;91.90
67141;DHT22;54058;52.010;5.546;2022-11-28T05:39:38;9.30;91.90
67141;DHT22;54058;52.010;5.546;2022-11-28T05:42:04;9.30;91.90
67141;DHT22;54058;52.010;5.546;2022-11-28T05:44:30;9.30;91.90
67141;DHT22;54058;52.010;5.546;2022-11-28T05:46:56;9.30;91.90
67141;DHT22;54058;52.010;5.546;2022-11-28T05:49:21;9.30;91.90
67141;DHT22;54058;52.010;5.546;2022-11-28T05:51:48;9.30;91.90
67141;DHT22;54058;52.010;5.546;2022-11-28T05:54:14;9.30;91.90
67141;DHT22;54058;52.010;5.546;2022-11-28T05:56:39;9.30;91.90
67141;DHT22;54058;52.010;5.546;2022-11-28T05:59:05;9.30;91.90
67141;DHT22;54058;52.010;5.546;2022-11-28T06:01:30;9.30;92.00
67141;DHT22;54058;52.010;5.546;2022-11-28T06:03:56;9.30;92.00
67141;DHT22;54058;52.010;5.546;2022-11-28T06:06:31;9.30;92.00
67141;DHT22;54058;52.010;5.546;2022-11-28T06:08:57;9.30;92.00
67141;DHT22;54058;52.010;5.546;2022-11-28T06:11:24;9.30;92.00
67141;DHT22;54058;52.010;5.546;2022-11-28T06:13:50;9.30;92.00
67141;DHT22;54058;52.010;5.546;2022-11-28T06:16:19;9.30;92.00
67141;DHT22;54058;52.010;5.546;2022-11-28T06:18:45;9.30;92.00
67141;DHT22;54058;52.010;5.546;2022-11-28T06:21:11;9.30;92.00
67141;DHT22;54058;52.010;5.546;2022-11-28T06:23:38;9.30;92.00
67141;DHT22;54058;52.010;5.546;2022-11-28T06:26:11;9.30;92.00
67141;DHT22;54058;52.010;5.546;2022-11-28T06:28:37;9.30;92.00
67141;DHT22;54058;52.010;5.546;2022-11-28T06:31:04;9.30;92.00
67141;DHT22;54058;52.010;5.546;2022-11-28T06:33:33;9.30;92.00
67141;DHT22;54058;52.010;5.546;2022-11-28T06:36:03;9.30;92.00
67141;DHT22;54058;52.010;5.546;2022-11-28T06:38:30;9.40;92.00
67141;DHT22;54058;52.010;5.546;2022-11-28T06:40:57;9.40;92.00
67141;DHT22;54058;52.010;5.546;2022-11-28T06:43:24;9.40;92.00
67141;DHT22;54058;52.010;5.546;2022-11-28T06:45:50;9.40;92.00
67141;DHT22;54058;52.010;5.546;2022-11-28T06:48:15;9.40;92.00
67141;DHT22;54058;52.010;5.546;2022-11-28T06:50:41;9.40;92.00
67141;DHT22;54058;52.010;5.546;2022-11-28T06:53:07;9.40;92.00
67141;DHT22;54058;52.010;5.546;2022-11-28T06:55:33;9.40;92.00
67141;DHT22;54058;52.010;5.546;2022-11-28T06:57:58;9.40;92.10
67141;DHT22;54058;52.010;5.546;2022-11-28T07:00:24;9.40;92.00
67141;DHT22;54058;52.010;5.546;2022-11-28T07:02:50;9.40;92.10
67141;DHT22;54058;52.010;5.546;2022-11-28T07:05:15;9.50;92.10
67141;DHT22;54058;52.010;5.546;2022-11-28T07:07:44;9.40;92.00
67141;DHT22;54058;52.010;5.546;2022-11-28T07:10:10;9.40;92.00
67141;DHT22;54058;52.010;5.546;2022-11-28T07:12:36;9.50;92.10
67141;DHT22;54058;52.010;5.546;2022-11-28T07:15:05;9.50;92.10
67141;DHT22;54058;52.010;5.546;2022-11-28T07:17:32;9.50;92.10
67141;DHT22;54058;52.010;5.546;2022-11-28T07:19:58;9.50;92.10
67141;DHT22;54058;52.010;5.546;2022-11-28T07:22:23;9.50;92.10
67141;DHT22;54058;52.010;5.546;2022-11-28T07:24:49;9.50;92.10
67141;DHT22;54058;52.010;5.546;2022-11-28T07:27:15;9.50;92.10
67141;DHT22;54058;52.010;5.546;2022-11-28T07:29:40;9.50;92.10
67141;DHT22;54058;52.010;5.546;2022-11-28T07:32:06;9.50;92.10
67141;DHT22;54058;52.010;5.546;2022-11-28T07:34:32;9.50;92.10
67141;DHT22;54058;52.010;5.546;2022-11-28T07:37:00;9.50;92.10
67141;DHT22;54058;52.010;5.546;2022-11-28T07:39:25;9.50;92.10
67141;DHT22;54058;52.010;5.546;2022-11-28T07:41:51;9.50;92.10
67141;DHT22;54058;52.010;5.546;2022-11-28T07:44:17;9.60;92.10
67141;DHT22;54058;52.010;5.546;2022-11-28T07:46:45;9.60;92.10
67141;DHT22;54058;52.010;5.546;2022-11-28T07:49:12;9.60;92.10
67141;DHT22;54058;52.010;5.546;2022-11-28T07:51:38;9.60;92.40
67141;DHT22;54058;52.010;5.546;2022-11-28T07:54:09;9.60;92.10
67141;DHT22;54058;52.010;5.546;2022-11-28T07:56:36;9.60;92.10
67141;DHT22;54058;52.010;5.546;2022-11-28T07:59:02;9.60;92.10
67141;DHT22;54058;52.010;5.546;2022-11-28T08:01:31;9.60;92.10
67141;DHT22;54058;52.010;5.546;2022-11-28T08:03:58;9.60;92.10
67141;DHT22;54058;52.010;5.546;2022-11-28T08:06:26;9.60;92.10
67141;DHT22;54058;52.010;5.546;2022-11-28T08:08:53;9.60;92.10
67141;DHT22;54058;52.010;5.546;2022-11-28T08:11:20;9.60;92.10
67141;DHT22;54058;52.010;5.546;2022-11-28T08:13:46;9.70;92.10
67141;DHT22;54058;52.010;5.546;2022-11-28T08:16:15;9.70;92.10
67141;DHT22;54058;52.010;5.546;2022-11-28T08:18:42;9.70;92.10
67141;DHT22;54058;52.010;5.546;2022-11-28T08:21:14;9.70;92.10
67141;DHT22;54058;52.010;5.546;2022-11-28T08:23:40;9.70;92.10
67141;DHT22;54058;52.010;5.546;2022-11-28T08:26:08;9.70;92.10
67141;DHT22;54058;52.010;5.546;2022-11-28T08:28:35;9.70;92.10
67141;DHT22;54058;52.010;5.546;2022-11-28T08:31:12;9.70;92.10
67141;DHT22;54058;52.010;5.546;2022-11-28T08:33:38;9.70;92.10
67141;DHT22;54058;52.010;5.546;2022-11-28T08:36:08;9.70;92.10
67141;DHT22;54058;52.010;5.546;2022-11-28T08:38:34;9.70;92.20
67141;DHT22;54058;52.010;5.546;2022-11-28T08:41:05;9.60;92.20
67141;DHT22;54058;52.010;5.546;2022-11-28T08:43:32;9.70;92.30
67141;DHT22;54058;52.010;5.546;2022-11-28T08:45:58;9.70;92.30
67141;DHT22;54058;52.010;5.546;2022-11-28T08:48:24;9.70;92.30
67141;DHT22;54058;52.010;5.546;2022-11-28T08:50:50;9.80;92.30
67141;DHT22;54058;52.010;5.546;2022-11-28T08:53:16;9.80;92.20
67141;DHT22;54058;52.010;5.546;2022-11-28T08:55:43;9.80;92.20
67141;DHT22;54058;52.010;5.546;2022-11-28T08:58:12;9.80;92.30
67141;DHT22;54058;52.010;5.546;2022-11-28T09:00:38;9.80;92.20
67141;DHT22;54058;52.010;5.546;2022-11-28T09:03:04;9.90;92.20
67141;DHT22;54058;52.010;5.546;2022-11-28T09:05:30;9.90;92.50
67141;DHT22;54058;52.010;5.546;2022-11-28T09:07:56;9.90;92.20
67141;DHT22;54058;52.010;5.546;2022-11-28T09:10:22;9.90;92.20
67141;DHT22;54058;52.010;5.546;2022-11-28T09:12:49;9.90;92.20
67141;DHT22;54058;52.010;5.546;2022-11-28T09:15:15;9.90;92.20
67141;DHT22;54058;52.010;5.546;2022-11-28T09:17:41;9.90;92.20
67141;DHT22;54058;52.010;5.546;2022-11-28T09:20:07;9.90;92.20
67141;DHT22;54058;52.010;5.546;2022-11-28T09:22:32;10.00;92.30
67141;DHT22;54058;52.010;5.546;2022-11-28T09:24:58;10.00;92.30
67141;DHT22;54058;52.010;5.546;2022-11-28T09:27:24;10.00;92.30
67141;DHT22;54058;52.010;5.546;2022-11-28T09:29:50;10.00;92.30
67141;DHT22;54058;52.010;5.546;2022-11-28T09:32:15;10.00;92.30
67141;DHT22;54058;52.010;5.546;2022-11-28T09:34:41;10.10;92.30
67141;DHT22;54058;52.010;5.546;2022-11-28T09:37:06;10.10;92.30
67141;DHT22;54058;52.010;5.546;2022-11-28T09:39:32;10.10;92.30
67141;DHT22;54058;52.010;5.546;2022-11-28T09:42:21;10.20;92.30
67141;DHT22;54058;52.010;5.546;2022-11-28T09:44:54;10.20;92.30
67141;DHT22;54058;52.010;5.546;2022-11-28T09:47:26;10.20;92.30
67141;DHT22;54058;52.010;5.546;2022-11-28T09:50:05;10.20;92.30
67141;DHT22;54058;52.010;5.546;2022-11-28T09:57:49;10.30;92.30
67141;DHT22;54058;52.010;5.546;2022-11-28T10:00:21;10.30;92.30
67141;DHT22;54058;52.010;5.546;2022-11-28T10:05:55;10.20;92.30
67141;DHT22;54058;52.010;5.546;2022-11-28T10:11:32;10.20;92.40
67141;DHT22;54058;52.010;5.546;2022-11-28T10:19:57;10.30;92.50
67141;DHT22;54058;52.010;5.546;2022-11-28T10:22:50;10.40;92.50
67141;DHT22;54058;52.010;5.546;2022-11-28T10:25:45;10.40;92.50
67141;DHT22;54058;52.010;5.546;2022-11-28T10:28:20;10.40;92.40
67141;DHT22;54058;52.010;5.546;2022-11-28T10:31:03;10.50;92.50
67141;DHT22;54058;52.010;5.546;2022-11-28T10:33:39;10.50;92.50
67141;DHT22;54058;52.010;5.546;2022-11-28T10:36:08;10.50;92.50
67141;DHT22;54058;52.010;5.546;2022-11-28T10:38:37;10.50;92.50
67141;DHT22;54058;52.010;5.546;2022-11-28T10:41:24;10.50;92.50
67141;DHT22;54058;52.010;5.546;2022-11-28T10:44:14;10.50;92.50
67141;DHT22;54058;52.010;5.546;2022-11-28T10:52:14;10.50;92.50
67141;DHT22;54058;52.010;5.546;2022-11-28T10:54:50;10.50;92.50
67141;DHT22;54058;52.010;5.546;2022-11-28T10:57:21;10.50;92.80
67141;DHT22;54058;52.010;5.546;2022-11-28T11:00:13;10.50;92.60
67141;DHT22;54058;52.010;5.546;2022-11-28T11:02:42;10.60;92.60
67141;DHT22;54058;52.010;5.546;2022-11-28T11:05:21;10.60;92.60
67141;DHT22;54058;52.010;5.546;2022-11-28T11:07:55;10.60;92.60
67141;DHT22;54058;52.010;5.546;2022-11-28T11:10:36;10.60;92.60
67141;DHT22;54058;52.010;5.546;2022-11-28T11:16:31;10.70;92.60
67141;DHT22;54058;52.010;5.546;2022-11-28T11:19:28;10.70;92.60
67141;DHT22;54058;52.010;5.546;2022-11-28T11:24:28;10.80;92.60
67141;DHT22;54058;52.010;5.546;2022-11-28T11:27:02;10.80;92.60
67141;DHT22;54058;52.010;5.546;2022-11-28T11:29:33;10.80;92.60
67141;DHT22;54058;52.010;5.546;2022-11-28T11:32:00;10.90;92.60
67141;DHT22;54058;52.010;5.546;2022-11-28T11:34:35;10.90;92.60
67141;DHT22;54058;52.010;5.546;2022-11-28T11:39:50;10.90;92.60
67141;DHT22;54058;52.010;5.546;2022-11-28T11:42:24;10.90;92.60
67141;DHT22;54058;52.010;5.546;2022-11-28T11:44:51;10.90;92.50
67141;DHT22;54058;52.010;5.546;2022-11-28T11:47:17;10.90;92.50
67141;DHT22;54058;52.010;5.546;2022-11-28T11:49:47;10.90;92.50
67141;DHT22;54058;52.010;5.546;2022-11-28T11:52:23;10.90;92.60
67141;DHT22;54058;52.010;5.546;2022-11-28T11:54:57;10.90;92.50
67141;DHT22;54058;52.010;5.546;2022-11-28T11:57:34;10.90;92.60
67141;DHT22;54058;52.010;5.546;2022-11-28T12:00:06;10.90;92.50
67141;DHT22;54058;52.010;5.546;2022-11-28T12:02:48;10.90;92.60
67141;DHT22;54058;52.010;5.546;2022-11-28T12:05:17;10.90;92.70
67141;DHT22;54058;52.010;5.546;2022-11-28T12:08:13;10.90;92.70
67141;DHT22;54058;52.010;5.546;2022-11-28T12:10:47;10.90;92.70
67141;DHT22;54058;52.010;5.546;2022-11-28T12:13:23;10.90;92.70
67141;DHT22;54058;52.010;5.546;2022-11-28T12:27:42;10.80;92.90
67141;DHT22;54058;52.010;5.546;2022-11-28T12:35:48;10.90;92.90
67141;DHT22;54058;52.010;5.546;2022-11-28T12:47:06;11.00;92.80
67141;DHT22;54058;52.010;5.546;2022-11-28T12:57:26;11.10;92.70
67141;DHT22;54058;52.010;5.546;2022-11-28T13:00:04;11.20;92.70
67141;DHT22;54058;52.010;5.546;2022-11-28T13:02:46;11.20;92.70
67141;DHT22;54058;52.010;5.546;2022-11-28T13:13:38;11.20;92.70
67141;DHT22;54058;52.010;5.546;2022-11-28T13:22:19;11.10;92.80
67141;DHT22;54058;52.010;5.546;2022-11-28T13:25:20;11.00;92.80
67141;DHT22;54058;52.010;5.546;2022-11-28T13:28:25;11.10;92.80
67141;DHT22;54058;52.010;5.546;2022-11-28T13:31:10;11.10;92.90
67141;DHT22;54058;52.010;5.546;2022-11-28T13:33:51;11.10;92.90
67141;DHT22;54058;52.010;5.546;2022-11-28T13:36:39;11.10;92.90
67141;DHT22;54058;52.010;5.546;2022-11-28T13:39:16;11.10;92.80
67141;DHT22;54058;52.010;5.546;2022-11-28T13:41:48;11.10;92.80
67141;DHT22;54058;52.010;5.546;2022-11-28T13:44:32;11.10;92.80
67141;DHT22;54058;52.010;5.546;2022-11-28T13:47:35;11.10;92.80
67141;DHT22;54058;52.010;5.546;2022-11-28T13:55:43;11.10;92.80
67141;DHT22;54058;52.010;5.546;2022-11-28T13:58:25;11.10;92.90
67141;DHT22;54058;52.010;5.546;2022-11-28T14:03:29;11.10;92.90
67141;DHT22;54058;52.010;5.546;2022-11-28T14:05:57;11.10;92.90
67141;DHT22;54058;52.010;5.546;2022-11-28T14:08:32;11.10;92.90
67141;DHT22;54058;52.010;5.546;2022-11-28T14:16:35;11.10;92.80
67141;DHT22;54058;52.010;5.546;2022-11-28T14:21:52;11.10;92.80
67141;DHT22;54058;52.010;5.546;2022-11-28T14:24:44;11.10;92.90
67141;DHT22;54058;52.010;5.546;2022-11-28T14:27:29;11.10;92.90
67141;DHT22;54058;52.010;5.546;2022-11-28T14:29:56;11.10;92.90
67141;DHT22;54058;52.010;5.546;2022-11-28T14:32:24;11.10;92.90
67141;DHT22;54058;52.010;5.546;2022-11-28T14:34:51;11.10;92.90
67141;DHT22;54058;52.010;5.546;2022-11-28T14:39:54;11.10;92.90
67141;DHT22;54058;52.010;5.546;2022-11-28T14:42:32;11.10;92.90
67141;DHT22;54058;52.010;5.546;2022-11-28T14:48:18;11.10;92.90
67141;DHT22;54058;52.010;5.546;2022-11-28T14:50:51;11.00;92.90
67141;DHT22;54058;52.010;5.546;2022-11-28T14:56:31;11.00;92.90
67141;DHT22;54058;52.010;5.546;2022-11-28T14:59:00;11.00;92.90
67141;DHT22;54058;52.010;5.546;2022-11-28T15:06:56;10.90;93.00
67141;DHT22;54058;52.010;5.546;2022-11-28T15:09:29;11.00;93.00
67141;DHT22;54058;52.010;5.546;2022-11-28T15:14:50;11.00;93.00
67141;DHT22;54058;52.010;5.546;2022-11-28T15:17:19;11.00;93.00
67141;DHT22;54058;52.010;5.546;2022-11-28T15:19:47;11.00;92.90
67141;DHT22;54058;52.010;5.546;2022-11-28T15:22:46;11.10;92.90
67141;DHT22;54058;52.010;5.546;2022-11-28T15:25:19;11.10;92.90
67141;DHT22;54058;52.010;5.546;2022-11-28T15:27:45;11.10;92.90
67141;DHT22;54058;52.010;5.546;2022-11-28T15:30:22;11.10;92.80
67141;DHT22;54058;52.010;5.546;2022-11-28T15:32:58;11.10;92.80
67141;DHT22;54058;52.010;5.546;2022-11-28T15:35:24;11.10;92.80
67141;DHT22;54058;52.010;5.546;2022-11-28T15:44:35;11.00;92.90
67141;DHT22;54058;52.010;5.546;2022-11-28T15:47:03;10.90;92.90
67141;DHT22;54058;52.010;5.546;2022-11-28T15:49:33;10.90;92.90
67141;DHT22;54058;52.010;5.546;2022-11-28T15:52:03;10.90;93.00
67141;DHT22;54058;52.010;5.546;2022-11-28T15:54:37;11.00;93.00
67141;DHT22;54058;52.010;5.546;2022-11-28T15:57:04;11.00;92.90
67141;DHT22;54058;52.010;5.546;2022-11-28T15:59:30;11.00;92.90
67141;DHT22;54058;52.010;5.546;2022-11-28T16:02:01;11.00;93.00
67141;DHT22;54058;52.010;5.546;2022-11-28T16:04:29;11.00;92.90
67141;DHT22;54058;52.010;5.546;2022-11-28T16:06:56;11.00;92.90
67141;DHT22;54058;52.010;5.546;2022-11-28T16:09:28;11.00;92.90
67141;DHT22;54058;52.010;5.546;2022-11-28T16:11:54;11.00;92.90
67141;DHT22;54058;52.010;5.546;2022-11-28T16:14:24;11.00;92.90
67141;DHT22;54058;52.010;5.546;2022-11-28T16:16:51;11.00;92.90
67141;DHT22;54058;52.010;5.546;2022-11-28T16:19:27;11.00;92.90
67141;DHT22;54058;52.010;5.546;2022-11-28T16:21:55;11.00;92.90
67141;DHT22;54058;52.010;5.546;2022-11-28T16:24:46;11.00;92.80
67141;DHT22;54058;52.010;5.546;2022-11-28T16:27:33;11.00;92.80
67141;DHT22;54058;52.010;5.546;2022-11-28T16:30:01;11.00;92.80
67141;DHT22;54058;52.010;5.546;2022-11-28T16:32:38;11.00;92.80
67141;DHT22;54058;52.010;5.546;2022-11-28T16:35:06;11.00;92.80
67141;DHT22;54058;52.010;5.546;2022-11-28T16:37:35;11.00;92.90
67141;DHT22;54058;52.010;5.546;2022-11-28T16:40:19;11.00;92.90
67141;DHT22;54058;52.010;5.546;2022-11-28T16:42:52;10.90;92.90
67141;DHT22;54058;52.010;5.546;2022-11-28T16:45:28;10.90;92.90
67141;DHT22;54058;52.010;5.546;2022-11-28T16:48:07;11.00;92.90
67141;DHT22;54058;52.010;5.546;2022-11-28T16:50:34;11.00;92.90
67141;DHT22;54058;52.010;5.546;2022-11-28T16:53:00;11.00;92.90
67141;DHT22;54058;52.010;5.546;2022-11-28T16:55:35;11.00;92.80
67141;DHT22;54058;52.010;5.546;2022-11-28T16:58:13;11.00;92.80
67141;DHT22;54058;52.010;5.546;2022-11-28T17:00:56;11.00;92.80
67141;DHT22;54058;52.010;5.546;2022-11-28T17:03:50;11.00;92.80
67141;DHT22;54058;52.010;5.546;2022-11-28T17:06:31;11.00;92.80
67141;DHT22;54058;52.010;5.546;2022-11-28T17:09:03;11.00;92.80
67141;DHT22;54058;52.010;5.546;2022-11-28T17:11:32;11.00;92.80
67141;DHT22;54058;52.010;5.546;2022-11-28T17:14:01;11.00;92.80
67141;DHT22;54058;52.010;5.546;2022-11-28T17:16:29;11.00;92.80
67141;DHT22;54058;52.010;5.546;2022-11-28T17:18:55;11.00;92.80
67141;DHT22;54058;52.010;5.546;2022-11-28T17:21:41;11.00;92.80
67141;DHT22;54058;52.010;5.546;2022-11-28T17:24:19;11.00;92.70
67141;DHT22;54058;52.010;5.546;2022-11-28T17:26:45;11.10;93.00
67141;DHT22;54058;52.010;5.546;2022-11-28T17:29:12;11.10;92.70
67141;DHT22;54058;52.010;5.546;2022-11-28T17:31:39;11.10;92.70
67141;DHT22;54058;52.010;5.546;2022-11-28T17:34:21;11.10;92.70
67141;DHT22;54058;52.010;5.546;2022-11-28T17:36:47;11.00;92.70
67141;DHT22;54058;52.010;5.546;2022-11-28T17:39:13;11.00;92.80
67141;DHT22;54058;52.010;5.546;2022-11-28T17:41:39;11.00;93.00
67141;DHT22;54058;52.010;5.546;2022-11-28T17:44:05;11.00;92.80
67141;DHT22;54058;52.010;5.546;2022-11-28T17:46:31;11.10;92.80
67141;DHT22;54058;52.010;5.546;2022-11-28T17:48:57;11.10;92.80
67141;DHT22;54058;52.010;5.546;2022-11-28T17:51:24;11.10;92.80
67141;DHT22;54058;52.010;5.546;2022-11-28T17:53:49;11.10;92.80
67141;DHT22;54058;52.010;5.546;2022-11-28T17:56:15;11.10;92.80
67141;DHT22;54058;52.010;5.546;2022-11-28T17:58:41;11.10;92.80
67141;DHT22;54058;52.010;5.546;2022-11-28T18:01:11;11.10;92.80
67141;DHT22;54058;52.010;5.546;2022-11-28T18:03:37;11.00;92.80
67141;DHT22;54058;52.010;5.546;2022-11-28T18:06:03;11.00;92.80
67141;DHT22;54058;52.010;5.546;2022-11-28T18:08:30;11.10;92.80
67141;DHT22;54058;52.010;5.546;2022-11-28T18:11:07;11.00;92.80
67141;DHT22;54058;52.010;5.546;2022-11-28T18:13:33;11.00;92.90
67141;DHT22;54058;52.010;5.546;2022-11-28T18:15:59;10.90;92.90
67141;DHT22;54058;52.010;5.546;2022-11-28T18:18:25;10.90;92.90
67141;DHT22;54058;52.010;5.546;2022-11-28T18:20:51;10.90;92.90
67141;DHT22;54058;52.010;5.546;2022-11-28T18:23:17;10.90;92.90
67141;DHT22;54058;52.010;5.546;2022-11-28T18:25:43;10.90;92.90
67141;DHT22;54058;52.010;5.546;2022-11-28T18:28:10;10.90;92.80
67141;DHT22;54058;52.010;5.546;2022-11-28T18:30:43;10.80;92.80
67141;DHT22;54058;52.010;5.546;2022-11-28T18:33:10;10.80;92.70
67141;DHT22;54058;52.010;5.546;2022-11-28T18:35:36;10.80;92.80
67141;DHT22;54058;52.010;5.546;2022-11-28T18:38:03;10.70;92.70
67141;DHT22;54058;52.010;5.546;2022-11-28T18:40:29;10.70;92.70
67141;DHT22;54058;52.010;5.546;2022-11-28T18:42:54;10.70;92.70
67141;DHT22;54058;52.010;5.546;2022-11-28T18:45:20;10.60;92.70
67141;DHT22;54058;52.010;5.546;2022-11-28T18:47:46;10.60;92.70
67141;DHT22;54058;52.010;5.546;2022-11-28T18:50:12;10.50;92.70
67141;DHT22;54058;52.010;5.546;2022-11-28T18:52:38;10.50;92.70
67141;DHT22;54058;52.010;5.546;2022-11-28T18:55:05;10.50;92.70
67141;DHT22;54058;52.010;5.546;2022-11-28T18:57:31;10.50;92.60
67141;DHT22;54058;52.010;5.546;2022-11-28T18:59:59;10.40;92.60
67141;DHT22;54058;52.010;5.546;2022-11-28T19:02:28;10.40;92.60
67141;DHT22;54058;52.010;5.546;2022-11-28T19:04:54;10.40;92.60
67141;DHT22;54058;52.010;5.546;2022-11-28T19:07:20;10.40;92.60
67141;DHT22;54058;52.010;5.546;2022-11-28T19:09:46;10.30;92.60
67141;DHT22;54058;52.010;5.546;2022-11-28T19:12:12;10.20;92.60